Flight Track Log - Related Links

Times and Time Zones

All times are in EDT time to prevent confusion due to time zone crossing. See the DAL694 flight status page for this flight to view local times or setup timezone preferences in your user account.

Time Position Orientation Groundspeed Altitude Reporting Facility
EDT Latitude Longitude Course Direction KTS MPH feet Rate Location/Type
Wed 07:34:58 AM 26.0750 -80.1297 84° East 158 182 1,200  Level Miami Center
Wed 07:36:17 AM 26.0833 -80.0419 69° East 239 275 3,800 2,241 Climbing Miami Center
Wed 07:37:36 AM 26.1189 -79.9411 68° East 290 334 7,100 2,719 Climbing Miami Center
Wed 07:38:36 AM 26.1500 -79.8542 64° Northeast 296 341 10,100 2,850 Climbing Miami Center
Wed 07:39:36 AM 26.1872 -79.7694 53° Northeast 296 341 12,800 1,950 Climbing Miami Center
Wed 07:40:36 AM 26.2453 -79.6828 53° Northeast 314 361 14,000 1,550 Climbing Miami Center
Wed 07:41:36 AM 26.3119 -79.5825 54° Northeast 376 433 15,900 2,200 Climbing Miami Center
Wed 07:42:36 AM 26.3892 -79.4658 39° Northeast 417 480 18,400 2,200 Climbing Miami Center
Wed 07:43:36 AM 26.4742 -79.3889 31° Northeast 432 497 20,300 1,700 Climbing Miami Center
Wed 07:44:36 AM 26.5797 -79.3192 29° Northeast 438 504 21,800 1,600 Climbing Miami Center
Wed 07:45:36 AM 26.6936 -79.2494 29° Northeast 448 516 23,500 1,850 Climbing Miami Center
Wed 07:46:36 AM 26.8056 -79.1794 30° Northeast 453 521 25,500 1,950 Climbing Miami Center
Wed 07:47:36 AM 26.9153 -79.1094 30° Northeast 458 527 27,400 2,050 Climbing Miami Center
Wed 07:48:36 AM 27.0228 -79.0392 30° Northeast 453 521 29,600 1,900 Climbing Miami Center
Wed 07:49:36 AM 27.1261 -78.9711 29° Northeast 437 503 31,200 1,400 Climbing Miami Center
Wed 07:50:36 AM 27.2336 -78.9053 29° Northeast 432 497 32,400 1,100 Climbing Miami Center
Wed 07:51:36 AM 27.3494 -78.8325 19° North 427 491 33,400 900 Climbing Miami Center
Wed 07:52:36 AM 27.4608 -78.7900 North 416 479 34,200 750 Climbing Miami Center
Wed 07:53:36 AM 27.5822 -78.7708 North 423 487 34,900 400 Climbing Miami Center
Wed 07:54:36 AM 27.6867 -78.7561 North 423 487 35,000 50 Climbing Miami Center
Wed 07:55:36 AM 27.8186 -78.7397 North 428 493 35,000  Level Miami Center
Wed 07:56:36 AM 27.9336 -78.7228 North 428 493 35,000  Level Miami Center
Wed 07:57:36 AM 28.0528 -78.7058 North 428 493 35,000  Level Miami Center
Wed 07:58:36 AM 28.1678 -78.6889 North 420 483 35,000  Level Miami Center
Wed 07:59:36 AM 28.2850 -78.6719 North 427 491 35,000  Level Miami Center
Wed 08:00:36 AM 28.4042 -78.6550 North 421 484 35,000  Level Miami Center
Wed 08:01:36 AM 28.5192 -78.6356 North 421 484 35,000  Level Miami Center
Wed 08:02:36 AM 28.6364 -78.6208 North 426 490 35,000  Level Miami Center
Wed 08:03:36 AM 28.7556 -78.6014 North 426 490 35,000  Level Miami Center
Wed 08:04:36 AM 28.8725 -78.5819 355° North 426 490 35,000  Level Miami Center
Wed 08:05:36 AM 28.9933 -78.5933 353° North 426 490 35,000  Level Miami Center
Wed 08:06:36 AM 29.1100 -78.6094 356° North 420 483 35,000  Level Miami Center
Wed 08:07:36 AM 29.2247 -78.6183 354° North 420 483 35,000  Level Miami Center
Wed 08:08:36 AM 29.3436 -78.6322 356° North 425 489 35,000  Level Miami Center
Wed 08:09:36 AM 29.4581 -78.6411 356° North 420 483 35,000  Level Miami Center
Wed 08:10:36 AM 29.5747 -78.6503 354° North 426 490 35,000  Level Miami Center
Wed 08:12:59 AM 29.8589 -78.6825 356° North 441 507 35,000  Level Jacksonville Center
Wed 08:13:59 AM 29.9761 -78.6919 352° North 428 493 35,000  Level Jacksonville Center
Wed 08:14:59 AM 30.0978 -78.7106 355° North 425 489 35,000  Level Jacksonville Center
Wed 08:15:59 AM 30.2172 -78.7222 356° North 432 497 35,000  Level Jacksonville Center
Wed 08:16:59 AM 30.3258 -78.7319 354° North 405 466 35,000  Level Jacksonville Center
Wed 08:17:59 AM 30.4475 -78.7458 356° North 419 482 35,000  Level Jacksonville Center
Wed 08:18:59 AM 30.5625 -78.7553 354° North 425 489 35,000  Level Jacksonville Center
Wed 08:19:59 AM 30.6861 -78.7694 355° North 431 496 35,000  Level Jacksonville Center
Wed 08:20:59 AM 30.8097 -78.7808 355° North 431 496 35,000  Level Jacksonville Center
Wed 08:21:59 AM 30.9228 -78.7931 358° North 426 490 35,000  Level Jacksonville Center
Wed 08:22:59 AM 31.0525 -78.7994 North 455 524 35,000  Level Jacksonville Center
Wed 08:23:59 AM 31.1692 -78.7944 17° North 436 502 35,000  Level Jacksonville Center
Wed 08:24:59 AM 31.2869 -78.7528 18° North 436 502 35,000  Level Jacksonville Center
Wed 08:25:59 AM 31.4022 -78.7086 17° North 434 499 35,000  Level Jacksonville Center
Wed 08:26:59 AM 31.5200 -78.6669 20° North 434 499 35,000  Level Jacksonville Center
Wed 08:27:59 AM 31.6372 -78.6175 21° North 437 503 35,000  Level Jacksonville Center
Wed 08:28:59 AM 31.7525 -78.5658 21° North 441 507 35,000  Level Jacksonville Center
Wed 08:29:59 AM 31.8697 -78.5139 21° North 442 509 35,000  Level Jacksonville Center
Wed 08:30:59 AM 31.9847 -78.4619 22° Northeast 442 509 35,000  Level Jacksonville Center
Wed 08:31:59 AM 32.0997 -78.4072 20° North 442 509 35,000  Level Jacksonville Center
Wed 08:32:59 AM 32.2189 -78.3550 21° North 442 509 35,000  Level Jacksonville Center
Wed 08:33:59 AM 32.3317 -78.3025 20° North 442 509 35,000  Level Jacksonville Center
Wed 08:34:59 AM 32.4344 -78.2581 21° North 437 503 35,000  Level Jacksonville Center
Wed 08:35:59 AM 32.5494 -78.2053 22° Northeast 437 503 35,000  Level Jacksonville Center
Wed 08:36:59 AM 32.6642 -78.1500 22° Northeast 444 511 35,000  Level Jacksonville Center
Wed 08:37:59 AM 32.7811 -78.0944 22° Northeast 444 511 35,000  Level Jacksonville Center
Wed 08:38:59 AM 32.8958 -78.0389 21° North 444 511 35,000  Level Jacksonville Center
Wed 08:39:59 AM 33.0106 -77.9856 20° North 444 511 35,000  Level Jacksonville Center
Wed 08:40:59 AM 33.1275 -77.9347 22° Northeast 444 511 35,000  Level Jacksonville Center
Wed 08:42:43 AM 33.3311 -77.8358 22° Northeast 436 502 35,000  Level Washington Center
Wed 08:43:41 AM 33.4447 -77.7817 23° Northeast 436 502 35,000  Level Washington Center
Wed 08:44:42 AM 33.5583 -77.7250 22° Northeast 436 502 35,000  Level Washington Center
Wed 08:45:42 AM 33.6719 -77.6703 22° Northeast 441 507 35,000  Level Washington Center
Wed 08:46:44 AM 33.7856 -77.6158 21° North 441 507 35,000  Level Washington Center
Wed 08:47:41 AM 33.8886 -77.5683 22° Northeast 436 502 35,000  Level Washington Center
Wed 08:48:42 AM 34.0042 -77.5133 21° North 441 507 35,000  Level Washington Center
Wed 08:49:42 AM 34.1175 -77.4608 22° Northeast 441 507 35,000  Level Washington Center
Wed 08:50:43 AM 34.2333 -77.4056 21° North 435 501 35,000  Level Washington Center
Wed 08:51:43 AM 34.3444 -77.3528 21° North 435 501 35,000  Level Washington Center
Wed 08:52:41 AM 34.4581 -77.2997 22° Northeast 435 501 35,000  Level Washington Center
Wed 08:53:41 AM 34.5736 -77.2442 22° Northeast 435 501 35,000  Level Washington Center
Wed 08:54:42 AM 34.6850 -77.1883 21° North 435 501 35,000  Level Washington Center
Wed 08:55:42 AM 34.8003 -77.1350 23° Northeast 435 501 35,000  Level Washington Center
Wed 08:56:44 AM 34.9094 -77.0789 21° North 435 501 35,000  Level Washington Center
Wed 08:57:41 AM 35.0269 -77.0250 24° Northeast 435 501 35,000  Level Washington Center
Wed 08:58:41 AM 35.1383 -76.9636 23° Northeast 435 501 35,000  Level Washington Center
Wed 08:59:42 AM 35.2475 -76.9069 22° Northeast 435 501 35,000  Level Washington Center
Wed 09:00:43 AM 35.3628 -76.8503 21° North 440 506 35,000  Level Washington Center
Wed 09:01:41 AM 35.4886 -76.7911 23° Northeast 435 501 35,000  Level Washington Center
Wed 09:02:42 AM 35.6019 -76.7314 23° Northeast 435 501 35,000  Level Washington Center
Wed 09:03:43 AM 35.7131 -76.6742 22° Northeast 435 501 35,000  Level Washington Center
Wed 09:04:43 AM 35.8303 -76.6167 21° North 440 506 35,000  Level Washington Center
Wed 09:05:41 AM 35.9436 -76.5619 22° Northeast 440 506 35,000  Level Washington Center
Wed 09:06:41 AM 36.0586 -76.5042 21° North 435 501 35,000  Level Washington Center
Wed 09:07:42 AM 36.1739 -76.4489 22° Northeast 435 501 35,000  Level Washington Center
Wed 09:08:43 AM 36.2889 -76.3908 22° Northeast 435 501 35,000  Level Washington Center
Wed 09:09:43 AM 36.4042 -76.3325 23° Northeast 435 501 35,000  Level Washington Center
Wed 09:10:43 AM 36.5172 -76.2742 22° Northeast 435 501 35,000  Level Washington Center
Wed 09:11:41 AM 36.6342 -76.2158 23° Northeast 435 501 35,000  Level Washington Center
Wed 09:12:42 AM 36.7389 -76.1594 24° Northeast 435 501 35,000  Level Washington Center
Wed 09:13:42 AM 36.8517 -76.0981 22° Northeast 440 506 35,000  Level Washington Center
Wed 09:14:43 AM 36.9689 -76.0389 20° North 446 513 35,000  Level Washington Center
Wed 09:15:43 AM 37.0922 -75.9825 22° Northeast 451 519 35,000  Level Washington Center
Wed 09:16:41 AM 37.2092 -75.9231 23° Northeast 451 519 35,000  Level Washington Center
Wed 09:17:42 AM 37.3261 -75.8608 23° Northeast 451 519 35,000  Level Washington Center
Wed 09:18:42 AM 37.4408 -75.7986 22° Northeast 456 525 35,000  Level Washington Center
Wed 09:19:43 AM 37.5600 -75.7386 23° Northeast 456 525 35,000  Level Washington Center
Wed 09:20:43 AM 37.6789 -75.6758 23° Northeast 456 525 35,000  Level Washington Center
Wed 09:21:43 AM 37.7936 -75.6128 23° Northeast 456 525 35,000  Level Washington Center
Wed 09:22:41 AM 37.9083 -75.5497 22° Northeast 456 525 35,000  Level Washington Center
Wed 09:23:42 AM 38.0272 -75.4889 25° Northeast 456 525 35,000  Level Washington Center
Wed 09:24:41 AM 38.1439 -75.4203 25° Northeast 456 525 35,000  Level Washington Center
Wed 09:25:41 AM 38.2583 -75.3511 29° Northeast 456 525 35,000  Level Washington Center
Wed 09:26:42 AM 38.3811 -75.2658 26° Northeast 450 518 35,000  Level Washington Center
Wed 09:27:43 AM 38.4956 -75.1939 27° Northeast 450 518 35,000  Level Washington Center
Wed 09:28:41 AM 38.6100 -75.1189 25° Northeast 450 518 35,000  Level Washington Center
Wed 09:29:42 AM 38.7264 -75.0489 30° Northeast 450 518 35,000  Level Washington Center
Wed 09:30:42 AM 38.8386 -74.9653 36° Northeast 455 524 35,000 -198 Level Washington Center
Wed 09:31:43 AM 38.9464 -74.8656 34° Northeast 461 531 34,600 -1,636 Descending Washington Center
Wed 09:32:43 AM 39.0522 -74.7736 36° Northeast 461 531 31,700 -3,051 Descending Washington Center
Wed 09:33:41 AM 39.1597 -74.6733 37° Northeast 466 536 28,600 -3,076 Descending Washington Center
Wed 09:34:42 AM 39.2672 -74.5703 35° Northeast 471 542 25,600 -2,602 Descending Washington Center
Wed 09:35:34 AM 39.3522 -74.4919 35° Northeast 469 540 23,700 -2,421 Descending New York Center
Wed 09:36:36 AM 39.4533 -74.4006 36° Northeast 464 534 21,000 -2,319 Descending New York Center
Wed 09:37:33 AM 39.5519 -74.3061 39° Northeast 453 521 19,100 -1,210 Descending New York Center
Wed 09:38:35 AM 39.6531 -74.2006 40° Northeast 425 489 18,600 -1,377 Descending New York Center
Wed 09:39:35 AM 39.7414 -74.1050 40° Northeast 410 472 16,300 -1,884 Descending New York Center
Wed 09:40:36 AM 39.8144 -74.0247 33° Northeast 394 453 14,800 -2,380 Descending New York Center
Wed 09:41:36 AM 39.9083 -73.9453 28° Northeast 394 453 11,500 -1,881 Descending New York Center
Wed 09:42:34 AM 40.0061 -73.8764 30° Northeast 376 433 11,100 -202 Descending New York Center
Wed 09:43:35 AM 40.0869 -73.8150 27° Northeast 345 397 11,100 -797 Level New York Center
Wed 09:44:42 AM 40.1833 -73.7500 36° Northeast 326 375 9,400 -1,388 Descending New York TRACON
Wed 09:45:36 AM 40.2336 -73.7019 31° Northeast 322 371 8,300 -1,446 Descending New York Center
Wed 09:46:34 AM 40.3144 -73.6372 22° Northeast 317 365 6,700 -1,513 Descending New York Center
Wed 09:47:35 AM 40.3797 -73.6019 352° North 293 337 5,300 -1,537 Descending New York Center
Wed 09:48:35 AM 40.4586 -73.6161 360° North 258 297 3,600 -1,140 Descending New York Center
Wed 09:49:36 AM 40.5333 -73.6167 21° North 267 307 3,000 -347 Descending New York TRACON
Wed 09:50:36 AM 40.6000 -73.5833 360° North 269 310 2,900  Descending New York TRACON
Wed 09:51:36 AM 40.6667 -73.5833 346° North 194 223 3,000 -300 Climbing New York TRACON
Wed 09:52:36 AM 40.7167 -73.6000 339° North 186 214 2,300 -500 Descending New York TRACON
Wed 09:53:36 AM 40.7500 -73.6167 270° West 162 186 2,000 -143 Descending New York TRACON
Wed 09:54:42 AM 40.7500 -73.6667 217° Southwest 148 170 2,000 -238 Level New York TRACON
Wed 09:55:42 AM 40.7167 -73.7000 217° Southwest 130 150 1,500 -550 Descending New York TRACON
Wed 09:56:42 AM 40.6833 -73.7333 201° Southwest 126 145 900 -650 Descending New York TRACON
Wed 09:57:42 AM 40.6500 -73.7500 201° Southwest 129 148 200 -700 Descending New York TRACON

Login

Don't have an account? Register now (free) for customized features, flight alerts, and more!